KF7RPV-1 Renton WA US current weather conditions

sailwx.info

Wind from 104

Air temperature 8.3° C
Dewpoint 6.5° C

Last reported at 2019-Dec-07 09:00 UTC.
Time now 2019-Dec-07 09:54 UTC

Location: N 47°27' W 122°10'.
View on Google Maps.

See reports from other nearby stations

  
Tides and Currents Weather Stations Pressure Air Temp Water Temp Dewpoint Dewpoint Depression Visibility Wind Speed Wind Dir Waves Ship Positions
date/time (UTC)wind fromknots sea level pressurealtimeterstation pressurevisibilityair tempwater tempwave heightnotes
2019-Dec-07 09:00 104 8.3
2019-Dec-07 08:50 8.3
2019-Dec-07 08:40 8.9
2019-Dec-07 08:30 169 0 gusting 2 8.9
2019-Dec-07 08:20 8.9
2019-Dec-07 08:10 099 0 gusting 1 8.9
2019-Dec-07 08:00 8.9
2019-Dec-07 07:50 278 0 gusting 2 8.9
2019-Dec-07 07:40 9.4
2019-Dec-07 07:30 263 0 gusting 2 9.4
2019-Dec-07 07:20 232 1 gusting 3 9.4
2019-Dec-07 07:10 183 1 gusting 3 10.0
2019-Dec-07 07:00 135 3 gusting 6 10.0
2019-Dec-07 06:50 126 3 gusting 5 10.0
2019-Dec-07 06:40 112 4 gusting 6 10.0
2019-Dec-07 06:30 139 2 gusting 3 10.0
2019-Dec-07 06:20 096 3 gusting 5 10.0
2019-Dec-07 06:10 126 2 gusting 3 10.6
2019-Dec-07 06:00 112 2 gusting 4 10.6
2019-Dec-07 05:50 130 4 gusting 5 10.6
2019-Dec-07 05:40 121 3 gusting 6 10.6
2019-Dec-07 05:30 103 2 gusting 6 10.6
2019-Dec-07 05:20 122 1 gusting 4 10.0
2019-Dec-07 05:10 099 0 gusting 3 10.0
2019-Dec-07 05:00 085 2 gusting 3 10.0
2019-Dec-07 04:50 075 2 gusting 4 10.0
2019-Dec-07 04:40 9.4
2019-Dec-07 04:30 10.0
2019-Dec-07 04:20 225 0 gusting 2 10.0
2019-Dec-07 04:10 104 0 gusting 3 10.0
2019-Dec-07 04:00 124 2 gusting 5 10.0
2019-Dec-07 03:50 140 2 gusting 3 10.0
2019-Dec-07 03:40 186 0 gusting 5 10.0
2019-Dec-07 03:30 164 2 gusting 5 10.0
2019-Dec-07 03:20 111 5 gusting 9 10.0
2019-Dec-07 03:10 116 6 gusting 9 10.0
2019-Dec-07 03:00 110 4 gusting 6 10.0
2019-Dec-07 02:50 122 3 gusting 6 10.0
2019-Dec-07 02:40 128 4 gusting 6 10.0
2019-Dec-07 02:30 114 3 gusting 5 9.4
2019-Dec-07 02:20 122 2 gusting 4 9.4
2019-Dec-07 02:10 134 4 gusting 6 10.0
2019-Dec-07 02:00 124 4 gusting 6 9.4
2019-Dec-07 01:50 089 4 gusting 5 9.4
2019-Dec-07 01:40 098 2 gusting 4 8.9
2019-Dec-07 01:30 9.4
2019-Dec-07 01:20 9.4
2019-Dec-07 01:10 224 9.4
2019-Dec-07 01:00 113 0 gusting 2 9.4
2019-Dec-07 00:50 112 1 gusting 2 9.4
2019-Dec-07 00:40 158 0 gusting 2 9.4
2019-Dec-07 00:30 10.0
2019-Dec-07 00:20 10.0
2019-Dec-07 00:10 10.0
2019-Dec-07 00:00 10.0
2019-Dec-06 23:50 10.6
2019-Dec-06 23:40 10.6
2019-Dec-06 23:30 10.6
2019-Dec-06 23:20 11.1
2019-Dec-06 23:10 11.1
2019-Dec-06 23:00 11.7
2019-Dec-06 22:50 229 0 gusting 2 11.7
2019-Dec-06 22:40 12.8
2019-Dec-06 22:30 285 1 gusting 3 12.8
2019-Dec-06 22:20 168 2 gusting 4 12.8
2019-Dec-06 22:10 149 2 gusting 4 13.3
2019-Dec-06 22:00 174 1 gusting 6 13.3
2019-Dec-06 21:50 154 2 gusting 4 13.3
2019-Dec-06 21:40 270 2 gusting 2 13.9
2019-Dec-06 21:30 223 2 gusting 3 13.9
2019-Dec-06 21:20 157 3 gusting 6 13.9
2019-Dec-06 21:10 105 0 gusting 2 14.4
2019-Dec-06 21:00 167 2 gusting 4 13.9
2019-Dec-06 20:50 144 4 gusting 6 13.9
2019-Dec-06 20:40 117 5 gusting 9 13.3
2019-Dec-06 20:30 094 5 gusting 8 13.9
2019-Dec-06 20:20 115 5 gusting 6 13.3
2019-Dec-06 20:10 121 3 gusting 5 13.3
2019-Dec-06 20:00 127 3 gusting 5 13.3
2019-Dec-06 19:50 162 0 gusting 4 13.3
2019-Dec-06 19:40 194 1 gusting 3 13.3
2019-Dec-06 19:30 12.8
2019-Dec-06 19:20 161 2 gusting 3 12.2
2019-Dec-06 19:10 123 0 gusting 4 12.2
2019-Dec-06 19:00 143 3 gusting 5 12.2
2019-Dec-06 18:50 173 2 gusting 5 12.2
2019-Dec-06 18:40 120 1 gusting 5 12.2
2019-Dec-06 18:30 149 0 gusting 2 11.7
2019-Dec-06 18:20 144 1 gusting 3 10.6
2019-Dec-06 18:10 8.9
2019-Dec-06 18:00 166 0 gusting 3 8.3
2019-Dec-06 17:50 084 0 gusting 2 7.2
2019-Dec-06 17:40 6.7
2019-Dec-06 17:30 6.7
2019-Dec-06 17:20 6.7
2019-Dec-06 17:10 6.7
2019-Dec-06 17:00 6.1
2019-Dec-06 16:50 5.6
2019-Dec-06 16:40 5.6
2019-Dec-06 16:30 270 0 gusting 1 5.0
2019-Dec-06 16:20 267 2 gusting 3 5.0
2019-Dec-06 16:10 104 0 gusting 3 5.6
2019-Dec-06 16:00 5.6
2019-Dec-06 15:50 5.6
2019-Dec-06 15:40 5.6
2019-Dec-06 15:30 5.6
2019-Dec-06 15:20 5.6
2019-Dec-06 15:10 5.6
2019-Dec-06 15:00 5.6
2019-Dec-06 14:50 5.6
2019-Dec-06 14:40 5.6
2019-Dec-06 14:30 5.6
2019-Dec-06 14:20 5.6
2019-Dec-06 14:10 5.6
2019-Dec-06 14:00 270 5.6
2019-Dec-06 13:50 5.6
2019-Dec-06 13:40 5.6
2019-Dec-06 13:30 5.6
2019-Dec-06 13:20 6.1
2019-Dec-06 13:10 6.1
2019-Dec-06 13:00 6.1
2019-Dec-06 12:50 6.1
2019-Dec-06 12:40 6.1
2019-Dec-06 12:30 6.7
2019-Dec-06 12:20 6.7
2019-Dec-06 12:10 6.7
2019-Dec-06 12:00 6.7
2019-Dec-06 11:50 6.7
2019-Dec-06 11:40 6.7
2019-Dec-06 11:30 6.7
2019-Dec-06 11:20 6.7
2019-Dec-06 11:10 6.7
2019-Dec-06 11:00 009 0 gusting 3 6.7
2019-Dec-06 10:50 097 0 gusting 3 6.7
2019-Dec-06 10:40 6.7
2019-Dec-06 10:30 320 0 gusting 3 6.7
2019-Dec-06 10:20 6.7
2019-Dec-06 10:10 6.7
2019-Dec-06 10:00 6.7
2019-Dec-06 09:50 023 6.7
2019-Dec-06 09:40 6.7
2019-Dec-06 09:30 335 1 gusting 3 6.7
2019-Dec-06 09:20 6.7
2019-Dec-06 09:10 6.7
2019-Dec-06 09:00 6.7
2019-Dec-06 08:50 6.7
2019-Dec-06 08:40 6.7
2019-Dec-06 08:30 6.7
2019-Dec-06 08:20 6.7
2019-Dec-06 08:10 6.7
2019-Dec-06 08:00 6.7
2019-Dec-06 07:50 6.7
2019-Dec-06 07:40 6.7
2019-Dec-06 07:30 6.7
2019-Dec-06 07:20 6.7
2019-Dec-06 07:10 7.2
2019-Dec-06 07:00 7.2
2019-Dec-06 06:50 295 0 gusting 3 7.2
2019-Dec-06 06:40 7.2
2019-Dec-06 06:30 127 0 gusting 2 6.7
2019-Dec-06 06:20 6.7
2019-Dec-06 06:10 270 0 gusting 3 6.7
2019-Dec-06 06:00 045 0 gusting 3 6.7
2019-Dec-06 05:50 6.7
2019-Dec-06 05:40 6.7
2019-Dec-06 05:30 6.7
2019-Dec-06 05:20 6.7
2019-Dec-06 05:10 6.7
2019-Dec-06 05:00 6.7
2019-Dec-06 04:50 6.7
2019-Dec-06 04:40 6.7
2019-Dec-06 04:30 6.7
2019-Dec-06 04:20 6.7
2019-Dec-06 04:10 6.7
2019-Dec-06 04:00 6.7
2019-Dec-06 03:50 6.7
2019-Dec-06 03:40 7.2
2019-Dec-06 03:30 6.7
2019-Dec-06 03:20 6.7
2019-Dec-06 03:10 6.7
2019-Dec-06 03:00 6.7
2019-Dec-06 02:50 6.7
2019-Dec-06 02:40 7.2
2019-Dec-06 02:30 7.2
2019-Dec-06 02:20 7.2
2019-Dec-06 02:10 7.2
2019-Dec-06 02:00 7.2
2019-Dec-06 01:50 7.2
2019-Dec-06 01:40 7.2
2019-Dec-06 01:30 7.2
2019-Dec-06 01:20 7.2
2019-Dec-06 01:10 7.8
2019-Dec-06 01:00 7.8
2019-Dec-06 00:50 7.8
2019-Dec-06 00:40 8.3
2019-Dec-06 00:30 8.3
2019-Dec-06 00:20 8.9
2019-Dec-06 00:10 9.4
2019-Dec-06 00:00 10.0
2019-Dec-05 23:50 10.0
2019-Dec-05 23:40 10.6
2019-Dec-05 23:30 10.6
2019-Dec-05 23:20 256 0 gusting 3 10.6
2019-Dec-05 23:10 10.6
2019-Dec-05 23:00 10.6
2019-Dec-05 22:50 10.6
2019-Dec-05 22:40 10.6
2019-Dec-05 22:30 10.6
2019-Dec-05 22:20 113 10.6
2019-Dec-05 22:10 172 0 gusting 3 10.6
2019-Dec-05 22:00 10.0
2019-Dec-05 21:50 10.0
2019-Dec-05 21:40 9.4
2019-Dec-05 21:30 9.4
2019-Dec-05 21:20 9.4
2019-Dec-05 21:10 113 0 gusting 3 9.4
2019-Dec-05 21:00 9.4
2019-Dec-05 20:50 8.9
2019-Dec-05 20:40 8.9
2019-Dec-05 20:30 024 2 gusting 3 8.9
2019-Dec-05 20:20 8.9
2019-Dec-05 20:10 8.9
2019-Dec-05 20:00 8.9
2019-Dec-05 19:50 8.9
2019-Dec-05 19:40 8.9
2019-Dec-05 19:30 279 1 gusting 3 8.9
2019-Dec-05 19:20 8.9
2019-Dec-05 19:10 8.9
2019-Dec-05 19:00 8.3
2019-Dec-05 18:50 8.9
2019-Dec-05 18:40 8.3
2019-Dec-05 18:30 8.3
2019-Dec-05 18:20 7.8
2019-Dec-05 18:10 7.8
2019-Dec-05 18:00 090 7.8
2019-Dec-05 17:50 7.2
2019-Dec-05 17:40 7.2
2019-Dec-05 17:30 7.2
2019-Dec-05 17:20 7.2
2019-Dec-05 17:10 6.7
2019-Dec-05 17:00 142 0 gusting 1 6.7
2019-Dec-05 16:50 119 0 gusting 2 6.7
2019-Dec-05 16:40 6.7
2019-Dec-05 16:30 6.7
2019-Dec-05 16:20 6.7
2019-Dec-05 16:10 6.1
2019-Dec-05 16:00 6.1
2019-Dec-05 15:50 6.1
2019-Dec-05 15:40 6.1
2019-Dec-05 15:30 6.1
2019-Dec-05 15:20 6.1
2019-Dec-05 15:10 006 0 gusting 1 6.1
2019-Dec-05 15:00 009 0 gusting 2 6.1
2019-Dec-05 14:50 351 1 gusting 3 6.1
2019-Dec-05 14:40 356 0 gusting 2 6.1
2019-Dec-05 14:30 032 6.1
2019-Dec-05 14:20 337 1 gusting 3 6.1
2019-Dec-05 14:10 343 1 gusting 3 6.1
2019-Dec-05 14:00 001 2 gusting 4 6.1
2019-Dec-05 13:50 004 1 gusting 3 6.1
2019-Dec-05 13:40 360 3 gusting 4 6.1
2019-Dec-05 13:30 330 2 gusting 4 6.1
2019-Dec-05 13:20 347 3 gusting 4 6.1
2019-Dec-05 13:10 350 4 gusting 5 6.1
2019-Dec-05 13:00 003 3 gusting 4 6.1
2019-Dec-05 12:50 355 3 gusting 4 6.1
2019-Dec-05 12:40 315 2 gusting 3 6.1
2019-Dec-05 12:30 335 2 gusting 4 6.1
2019-Dec-05 12:20 320 1 gusting 3 6.1
2019-Dec-05 12:10 311 1 gusting 3 6.1
2019-Dec-05 12:00 299 2 gusting 3 6.7
2019-Dec-05 11:50 286 2 gusting 3 6.7
2019-Dec-05 11:40 322 0 gusting 2 6.7
2019-Dec-05 11:30 338 0 gusting 2 6.7
2019-Dec-05 11:20 321 1 gusting 3 6.7
2019-Dec-05 11:10 008 0 gusting 3 6.7
2019-Dec-05 11:00 007 1 gusting 2 6.7
2019-Dec-05 10:50 003 2 gusting 4 6.7
2019-Dec-05 10:40 002 3 gusting 4 6.7
2019-Dec-05 10:30 006 3 gusting 4 6.7
2019-Dec-05 10:20 003 3 gusting 5 6.7
2019-Dec-05 10:10 355 2 gusting 4 6.7
2019-Dec-05 10:00 340 3 gusting 5 6.7
2019-Dec-05 09:50 352 3 gusting 5 6.1
2019-Dec-05 09:40 324 4 gusting 6 6.1
2019-Dec-05 09:30 341 4 gusting 6 6.1
2019-Dec-05 09:20 342 4 gusting 6 6.1
2019-Dec-05 09:10 339 4 gusting 6 6.1
2019-Dec-05 09:00 010 4 gusting 6 6.1